»·PEaware :: UAL455 KSFO-KLAS

UAL455 :: KSFO-KLAS

FLIGHT INFORMATION

Flight Status: Arrived
Operator:
United Airlines
More flights by this operator :: More flights under this callsign
Pilot: Saso K. (7898)
Aircraft: BOEING 737-300
(B733)
More flights by this aircraft type
Origin: KSFO San Francisco Intl
United States
Destination: KLAS McCarran Intl
United States
More flights between these airports :: More routes between these airports
Route: +SSTIK3 NTELL Q162 ESSAA BTY SUNST3
File this flight plan on PilotEdge
Remarks:
Altitude:
(Current/Filed)
33,000ft
Speed:
(Current/Filed)
435kts
Departed: 21-Dec-16 05:58 PM
Arrived: 21-Dec-16 07:13 PM
Distance/Time
Traveled:
359nm/1:15
Distance/Time
To Go:
Arrived

Flight Plot

Page will automatically refresh every two minutes.


Map Options




Map Legend


Flown Route
Filed Route
Departure Airport
Arrival Airport
Navaid (VOR, NDB)
Fix

Horizontal Profiles

Position Reports

Time Latitude Longitude Heading Altitude Ground
Speed
21-Dec-16 17:19 37.618640 -122.388046 158 30ft 0kts
21-Dec-16 17:20 37.618640 -122.388046 158 30ft 0kts
21-Dec-16 17:21 37.618640 -122.388046 158 30ft 0kts
21-Dec-16 17:22 37.618640 -122.388046 158 30ft 0kts
21-Dec-16 17:23 37.618640 -122.388046 158 30ft 0kts
21-Dec-16 17:24 37.618640 -122.388046 158 30ft 0kts
21-Dec-16 17:25 37.618640 -122.388046 158 30ft 0kts
21-Dec-16 17:26 37.618640 -122.388046 158 30ft 0kts
21-Dec-16 17:27 37.618640 -122.388046 158 30ft 0kts
21-Dec-16 17:28 37.618640 -122.388046 158 30ft 0kts
21-Dec-16 17:29 37.618640 -122.388046 158 30ft 0kts
21-Dec-16 17:30 37.618640 -122.388046 158 30ft 0kts
21-Dec-16 17:31 37.618640 -122.388046 158 30ft 0kts
21-Dec-16 17:32 37.618640 -122.388046 158 30ft 0kts
21-Dec-16 17:33 37.618640 -122.388046 158 30ft 0kts
21-Dec-16 17:34 37.618640 -122.388046 158 30ft 0kts
21-Dec-16 17:35 37.618640 -122.388046 158 30ft 0kts
21-Dec-16 17:36 37.618640 -122.388046 158 30ft 0kts
21-Dec-16 17:37 37.618841 -122.388147 149 30ft 1kts
21-Dec-16 17:38 37.619071 -122.388824 110 30ft 2kts
21-Dec-16 17:39 37.619121 -122.389421 19 30ft 1kts
21-Dec-16 17:40 37.619406 -122.389857 297 30ft 2kts
21-Dec-16 17:41 37.619653 -122.390463 297 30ft 0kts
21-Dec-16 17:42 37.619653 -122.390463 297 30ft 0kts
21-Dec-16 17:43 37.619846 -122.390859 303 30ft 3kts
21-Dec-16 17:44 37.620565 -122.392086 359 30ft 9kts
21-Dec-16 17:45 37.622428 -122.388603 118 29ft 16kts
21-Dec-16 17:46 37.620128 -122.383132 117 30ft 19kts
21-Dec-16 17:47 37.616113 -122.379983 207 30ft 20kts
21-Dec-16 17:48 37.611035 -122.383341 207 30ft 19kts
21-Dec-16 17:49 37.608241 -122.383323 118 30ft 9kts
21-Dec-16 17:50 37.615158 -122.378109 28 27ft 115kts
21-Dec-16 17:51 37.656338 -122.361203 0 1840ft 180kts
21-Dec-16 17:52 37.702527 -122.386272 276 4161ft 227kts
21-Dec-16 17:53 37.653269 -122.427544 191 6295ft 276kts
21-Dec-16 17:54 37.578456 -122.448067 193 9302ft 291kts
21-Dec-16 17:55 37.494657 -122.460597 160 11183ft 345kts
21-Dec-16 17:56 37.431195 -122.371009 125 13942ft 364kts
21-Dec-16 17:57 37.394510 -122.253287 103 16503ft 381kts
21-Dec-16 17:58 37.368826 -122.123578 103 18841ft 398kts
21-Dec-16 17:59 37.342483 -121.991509 103 19847ft 405kts
21-Dec-16 18:00 37.315683 -121.857986 104 21865ft 420kts
21-Dec-16 18:01 37.287418 -121.718072 104 23747ft 434kts
21-Dec-16 18:02 37.257241 -121.569707 104 25537ft 448kts
21-Dec-16 18:03 37.225954 -121.416953 105 27198ft 461kts
21-Dec-16 18:04 37.200195 -121.292001 106 28495ft 468kts
21-Dec-16 18:05 37.167941 -121.136516 107 30490ft 462kts
21-Dec-16 18:06 37.136388 -120.985450 110 32914ft 438kts
21-Dec-16 18:07 37.104437 -120.833877 110 32180ft 457kts
21-Dec-16 18:08 37.072262 -120.681827 110 30589ft 452kts
21-Dec-16 18:09 37.040316 -120.532028 110 29137ft 441kts
21-Dec-16 18:10 37.008744 -120.385096 110 29118ft 450kts
21-Dec-16 18:11 36.977858 -120.242036 111 29972ft 437kts
21-Dec-16 18:12 36.946745 -120.099061 112 31750ft 432kts
21-Dec-16 18:13 36.918977 -119.972134 113 32964ft 433kts
21-Dec-16 18:14 36.913789 -119.826758 68 33144ft 477kts
21-Dec-16 18:15 36.963999 -119.687770 70 33124ft 473kts
21-Dec-16 18:16 37.006279 -119.558117 71 33137ft 476kts
21-Dec-16 18:17 37.051310 -119.419544 70 33133ft 477kts
21-Dec-16 18:18 37.091292 -119.295922 71 33123ft 478kts
21-Dec-16 18:19 37.129208 -119.178181 70 33158ft 478kts
21-Dec-16 18:20 37.177211 -119.028456 71 33224ft 479kts
21-Dec-16 18:21 37.226550 -118.873738 71 33224ft 494kts
21-Dec-16 18:22 37.276089 -118.715996 79 33220ft 498kts
21-Dec-16 18:23 37.289974 -118.559466 90 33182ft 481kts
21-Dec-16 18:24 37.305058 -118.393820 90 33190ft 483kts
21-Dec-16 18:25 37.319256 -118.236665 90 33179ft 481kts
21-Dec-16 18:26 37.334012 -118.070139 90 33193ft 482kts
21-Dec-16 18:27 37.348518 -117.904410 91 33182ft 482kts
21-Dec-16 18:28 37.336384 -117.743538 105 33186ft 470kts
21-Dec-16 18:29 37.321908 -117.582807 104 33180ft 468kts
21-Dec-16 18:30 37.307281 -117.421355 104 33220ft 470kts
21-Dec-16 18:31 37.288581 -117.289434 131 33228ft 435kts
21-Dec-16 18:32 37.217251 -117.179197 139 33256ft 428kts
21-Dec-16 18:33 37.145019 -117.061183 138 32479ft 431kts
21-Dec-16 18:34 37.074610 -116.945998 140 30246ft 417kts
21-Dec-16 18:35 36.988169 -116.875785 161 28141ft 381kts
21-Dec-16 18:36 36.900043 -116.814783 160 26261ft 388kts
21-Dec-16 18:37 36.818845 -116.758546 159 24562ft 389kts
21-Dec-16 18:38 36.745959 -116.670341 139 24222ft 425kts
21-Dec-16 18:39 36.676532 -116.571713 139 24218ft 426kts
21-Dec-16 18:40 36.607609 -116.473615 139 24220ft 426kts
21-Dec-16 18:41 36.537240 -116.373576 139 24235ft 421kts
21-Dec-16 18:42 36.477829 -116.289153 141 24091ft 370kts
21-Dec-16 18:43 36.417472 -116.202622 139 22207ft 372kts
21-Dec-16 18:44 36.355555 -116.115072 138 20311ft 363kts
21-Dec-16 18:45 36.295536 -116.030861 137 18335ft 359kts
21-Dec-16 18:46 36.236990 -115.948898 135 16491ft 349kts
21-Dec-16 18:47 36.189096 -115.864227 116 15859ft 315kts
21-Dec-16 18:48 36.158686 -115.769927 115 15494ft 316kts
21-Dec-16 18:49 36.129953 -115.680583 115 15116ft 312kts
21-Dec-16 18:50 36.100155 -115.586198 113 14253ft 313kts
21-Dec-16 18:51 36.070437 -115.492963 112 12583ft 305kts
21-Dec-16 18:52 36.041148 -115.402521 112 11149ft 296kts
21-Dec-16 18:53 36.027527 -115.322678 96 10523ft 271kts
21-Dec-16 18:54 36.021046 -115.232226 95 9186ft 273kts
21-Dec-16 18:55 36.015010 -115.144242 95 8195ft 261kts
21-Dec-16 18:56 36.008811 -115.056415 95 7054ft 258kts
21-Dec-16 18:57 36.002193 -114.969762 95 5983ft 253kts
21-Dec-16 18:58 35.997785 -114.887924 70 5277ft 227kts
21-Dec-16 18:59 36.045654 -114.863443 351 4978ft 188kts
21-Dec-16 19:00 36.073354 -114.915806 277 4904ft 196kts
21-Dec-16 19:01 36.074058 -114.978261 268 4471ft 178kts
21-Dec-16 19:02 36.073680 -115.033425 269 3552ft 145kts
21-Dec-16 19:03 36.073674 -115.082015 268 2794ft 143kts
21-Dec-16 19:04 36.073643 -115.130141 271 2060ft 140kts
21-Dec-16 19:05 36.074641 -115.150441 296 2119ft 0kts
21-Dec-16 19:06 36.074699 -115.150580 293 2120ft 1kts
21-Dec-16 19:07 36.076019 -115.151565 14 2121ft 13kts
21-Dec-16 19:08 36.078665 -115.149574 94 2108ft 18kts
21-Dec-16 19:09 36.078224 -115.142867 94 2086ft 17kts
21-Dec-16 19:10 36.080776 -115.142514 0 2081ft 15kts
21-Dec-16 19:11 36.084185 -115.140073 88 2066ft 14kts
21-Dec-16 19:12 36.083258 -115.138335 221 2061ft 2kts
21-Dec-16 19:13 36.082935 -115.138766 223 2063ft 0kts
21-Dec-16 19:14 36.082935 -115.138766 222 2063ft 0kts
21-Dec-16 19:15 36.082935 -115.138766 222 2063ft 0kts

Navigation Log

Ident Type
1. KSFO Airport
2. BTY Navaid
3. MYCAL Fix
4. FUZZY Fix
5. TRAGR Fix
6. IPUMY Fix
7. NIPZO Fix
8. SUNST Fix
9. KIMME Fix
10. CHIPZ Fix
11. POKRR Fix
12. PRINO Fix
13. KLAS Airport